createdAt,value
2017-12-25T00:02:09.915Z,10.40
2017-12-25T00:04:38.774Z,10.40
2017-12-25T00:07:06.941Z,10.40
2017-12-25T00:09:35.115Z,10.50
2017-12-25T00:12:05.484Z,10.40
2017-12-25T00:14:37.979Z,10.40
2017-12-25T00:17:06.877Z,10.40
2017-12-25T00:19:35.933Z,10.50
2017-12-25T00:22:04.139Z,10.40
2017-12-25T00:24:33.981Z,10.50
2017-12-25T00:27:03.986Z,10.50
2017-12-25T00:29:32.912Z,10.50
2017-12-25T00:32:03.061Z,10.50
2017-12-25T00:34:31.499Z,10.40
2017-12-25T00:37:00.575Z,10.60
2017-12-25T00:39:28.761Z,10.60
2017-12-25T00:41:56.908Z,10.60
2017-12-25T00:44:25.098Z,10.60
2017-12-25T00:46:54.002Z,10.50
2017-12-25T00:49:22.165Z,10.50
2017-12-25T00:51:50.334Z,10.60
2017-12-25T00:54:19.261Z,10.50
2017-12-25T00:56:47.432Z,10.50
2017-12-25T00:59:15.609Z,10.50
2017-12-25T01:01:43.752Z,10.40
2017-12-25T01:04:11.896Z,10.40
2017-12-25T01:06:40.078Z,10.40
2017-12-25T01:09:08.988Z,10.40
2017-12-25T01:11:37.913Z,10.40
2017-12-25T01:14:06.053Z,10.50
2017-12-25T01:16:34.232Z,10.40
2017-12-25T01:19:02.647Z,10.30
2017-12-25T01:21:31.006Z,10.40
2017-12-25T01:23:59.168Z,10.40
2017-12-25T01:26:27.345Z,10.40
2017-12-25T01:28:55.489Z,10.30
2017-12-25T01:31:24.436Z,10.40
2017-12-25T01:33:52.576Z,10.40
2017-12-25T01:36:20.734Z,10.40
2017-12-25T01:38:49.642Z,10.50
2017-12-25T01:41:17.837Z,10.50
2017-12-25T01:43:45.998Z,10.50
2017-12-25T01:46:14.199Z,10.50
2017-12-25T01:48:42.413Z,10.40
2017-12-25T01:51:11.349Z,10.50
2017-12-25T01:53:40.429Z,10.50
2017-12-25T01:56:11.113Z,10.50
2017-12-25T01:58:43.937Z,10.40
2017-12-25T02:01:24.538Z,10.50
2017-12-25T02:04:05.429Z,10.40
2017-12-25T02:06:45.269Z,10.50
2017-12-25T02:09:13.409Z,10.40
2017-12-25T02:11:41.574Z,10.20
2017-12-25T02:14:09.750Z,10.30
2017-12-25T02:16:37.930Z,10.40
2017-12-25T02:19:06.144Z,10.40
2017-12-25T02:21:34.347Z,10.40
2017-12-25T02:24:03.259Z,10.40
2017-12-25T02:26:31.433Z,10.40
2017-12-25T02:29:00.329Z,10.30
2017-12-25T02:31:28.534Z,10.30
2017-12-25T02:33:56.679Z,10.30
2017-12-25T02:36:24.945Z,10.40
2017-12-25T02:38:53.859Z,10.40
2017-12-25T02:41:22.153Z,10.30
2017-12-25T02:43:50.329Z,10.40
2017-12-25T02:46:18.485Z,10.40
2017-12-25T02:48:46.631Z,10.40
2017-12-25T02:51:15.560Z,10.30
2017-12-25T02:53:43.712Z,10.30
2017-12-25T02:56:11.871Z,10.40
2017-12-25T02:58:40.777Z,10.40
2017-12-25T03:01:08.945Z,10.40
2017-12-25T03:03:37.842Z,10.30
2017-12-25T03:06:06.019Z,10.30
2017-12-25T03:08:34.153Z,10.30
2017-12-25T03:11:03.436Z,10.30
2017-12-25T03:13:31.569Z,10.30
2017-12-25T03:15:59.733Z,10.30
2017-12-25T03:18:27.903Z,10.20
2017-12-25T03:20:56.822Z,10.30
2017-12-25T03:23:24.990Z,10.30
2017-12-25T03:25:53.148Z,10.40
2017-12-25T03:28:21.320Z,10.40
2017-12-25T03:30:49.515Z,10.20
2017-12-25T03:33:17.654Z,10.20
2017-12-25T03:35:45.863Z,10.40
2017-12-25T03:38:14.021Z,10.30
2017-12-25T03:40:42.209Z,10.30
2017-12-25T03:43:10.388Z,10.30
2017-12-25T03:45:38.549Z,10.30
2017-12-25T03:48:06.686Z,10.30
2017-12-25T03:50:34.893Z,10.30
2017-12-25T03:53:03.422Z,10.20
2017-12-25T03:55:31.700Z,10.30
2017-12-25T03:57:59.839Z,10.20
2017-12-25T04:00:27.997Z,10.20
2017-12-25T04:02:56.141Z,10.20
2017-12-25T04:05:24.321Z,10.20
2017-12-25T04:07:53.237Z,10.20
2017-12-25T04:10:21.417Z,10.20
2017-12-25T04:12:49.563Z,10.20
2017-12-25T04:15:18.493Z,10.30
2017-12-25T04:17:46.645Z,10.30
2017-12-25T04:20:14.808Z,10.30
2017-12-25T04:22:43.729Z,10.20
2017-12-25T04:25:11.955Z,10.20
2017-12-25T04:27:40.102Z,10.20
2017-12-25T04:30:08.237Z,10.20
2017-12-25T04:32:36.415Z,10.20
2017-12-25T04:35:04.570Z,10.20
2017-12-25T04:37:33.500Z,10.20
2017-12-25T04:40:01.669Z,10.20
2017-12-25T04:42:29.838Z,10.10
2017-12-25T04:44:57.982Z,10.00
2017-12-25T04:47:26.146Z,10.00
2017-12-25T04:49:54.320Z,9.90
2017-12-25T04:52:22.506Z,9.90
2017-12-25T04:54:51.409Z,10.10
2017-12-25T04:57:19.617Z,10.10
2017-12-25T04:59:47.765Z,10.10
2017-12-25T05:02:15.961Z,10.00
2017-12-25T05:04:44.145Z,10.00
2017-12-25T05:07:12.305Z,10.00
2017-12-25T05:09:40.472Z,10.10
2017-12-25T05:12:08.729Z,10.10
2017-12-25T05:14:36.881Z,10.10
2017-12-25T05:17:05.822Z,10.10
2017-12-25T05:19:33.981Z,10.10
2017-12-25T05:22:02.162Z,10.10
2017-12-25T05:24:30.313Z,10.10
2017-12-25T05:26:58.507Z,10.10
2017-12-25T05:29:26.646Z,10.10
2017-12-25T05:31:55.587Z,10.00
2017-12-25T05:34:23.745Z,10.00
2017-12-25T05:36:51.936Z,10.00
2017-12-25T05:39:20.072Z,10.10
2017-12-25T05:41:49.008Z,10.20
2017-12-25T05:44:17.147Z,10.20
2017-12-25T05:46:45.318Z,10.10
2017-12-25T05:49:14.224Z,10.10
2017-12-25T05:51:42.401Z,10.10
2017-12-25T05:54:10.577Z,10.00
2017-12-25T05:56:38.747Z,10.10
2017-12-25T05:59:06.903Z,10.00
2017-12-25T06:01:35.074Z,10.00
2017-12-25T06:04:04.142Z,10.00
2017-12-25T06:06:32.382Z,10.00
2017-12-25T06:09:01.560Z,9.90
2017-12-25T06:11:29.727Z,9.90
2017-12-25T06:13:57.865Z,9.80
2017-12-25T06:16:26.041Z,9.90
2017-12-25T06:18:54.194Z,9.90
2017-12-25T06:21:22.362Z,10.00
2017-12-25T06:23:50.525Z,10.10
2017-12-25T06:26:18.696Z,10.10
2017-12-25T06:28:46.827Z,10.00
2017-12-25T06:31:14.997Z,10.10
2017-12-25T06:33:43.171Z,9.90
2017-12-25T06:36:12.114Z,9.80
2017-12-25T06:38:40.261Z,9.80
2017-12-25T06:41:08.421Z,9.80
2017-12-25T06:43:36.566Z,9.70
2017-12-25T06:46:04.941Z,9.70
2017-12-25T06:48:33.090Z,9.90
2017-12-25T06:51:01.270Z,10.00
2017-12-25T06:53:29.614Z,10.00
2017-12-25T06:55:57.794Z,9.90
2017-12-25T06:58:25.936Z,10.00
2017-12-25T07:00:54.843Z,10.00
2017-12-25T07:03:23.002Z,10.00
2017-12-25T07:05:51.922Z,9.90
2017-12-25T07:08:20.100Z,9.90
2017-12-25T07:10:48.274Z,9.90
2017-12-25T07:13:16.430Z,9.90
2017-12-25T07:15:44.617Z,9.90
2017-12-25T07:18:12.793Z,9.90
2017-12-25T07:20:40.954Z,9.90
2017-12-25T07:23:09.130Z,10.00
2017-12-25T07:25:37.305Z,10.00
2017-12-25T07:28:05.481Z,10.10
2017-12-25T07:30:33.636Z,10.00
2017-12-25T07:33:01.912Z,10.00
2017-12-25T07:35:30.183Z,10.00
2017-12-25T07:37:59.130Z,9.80
2017-12-25T07:40:27.258Z,9.80
2017-12-25T07:42:56.186Z,9.80
2017-12-25T07:45:24.323Z,9.80
2017-12-25T07:47:53.270Z,9.90
2017-12-25T07:50:21.436Z,9.90
2017-12-25T07:52:49.593Z,10.00
2017-12-25T07:55:17.765Z,9.90
2017-12-25T07:57:45.938Z,9.90
2017-12-25T08:00:14.120Z,9.90
2017-12-25T08:02:42.261Z,9.90
2017-12-25T08:05:10.428Z,9.90
2017-12-25T08:07:39.367Z,9.90
2017-12-25T08:10:07.511Z,9.90
2017-12-25T08:12:35.676Z,10.00
2017-12-25T08:15:04.625Z,10.00
2017-12-25T08:17:32.801Z,10.00
2017-12-25T08:20:00.941Z,10.00
2017-12-25T08:22:29.811Z,9.90
2017-12-25T08:24:58.713Z,10.10
2017-12-25T08:27:26.900Z,10.10
2017-12-25T08:29:55.062Z,10.10
2017-12-25T08:32:23.233Z,10.10
2017-12-25T08:34:52.389Z,10.10
2017-12-25T08:37:21.045Z,10.10
2017-12-25T08:39:49.411Z,10.00
2017-12-25T08:42:17.599Z,10.00
2017-12-25T08:44:45.764Z,10.10
2017-12-25T08:47:13.930Z,10.10
2017-12-25T08:49:42.102Z,10.10
2017-12-25T08:52:10.278Z,10.10
2017-12-25T08:54:38.438Z,10.30
2017-12-25T08:57:06.650Z,10.40
2017-12-25T08:59:34.802Z,10.30
2017-12-25T09:02:02.982Z,10.30
2017-12-25T09:04:31.187Z,10.30
2017-12-25T09:06:59.478Z,10.20
2017-12-25T09:09:28.443Z,10.10
2017-12-25T09:11:56.629Z,10.10
2017-12-25T09:14:24.804Z,10.20
2017-12-25T09:16:52.969Z,10.20
2017-12-25T09:19:21.147Z,10.30
2017-12-25T09:21:49.366Z,10.40
2017-12-25T09:24:18.281Z,10.40
2017-12-25T09:26:46.449Z,10.40
2017-12-25T09:29:15.373Z,10.30
2017-12-25T09:31:43.546Z,10.40
2017-12-25T09:34:11.702Z,10.40
2017-12-25T09:36:39.852Z,10.50
2017-12-25T09:39:08.800Z,10.40
2017-12-25T09:41:36.986Z,10.40
2017-12-25T09:44:05.162Z,10.40
2017-12-25T09:46:33.418Z,10.40
2017-12-25T09:49:02.817Z,10.40
2017-12-25T09:51:31.016Z,10.50
2017-12-25T09:54:00.228Z,10.50
2017-12-25T09:56:32.252Z,10.60
2017-12-25T09:59:00.519Z,10.60
2017-12-25T10:01:28.690Z,10.50
2017-12-25T10:03:56.882Z,10.50
2017-12-25T10:06:25.050Z,10.50
2017-12-25T10:08:54.031Z,10.30
2017-12-25T10:11:25.296Z,10.30
2017-12-25T10:13:55.386Z,10.40
2017-12-25T10:16:25.132Z,10.40
2017-12-25T10:21:44.445Z,10.50
2017-12-25T10:24:15.395Z,10.50
2017-12-25T10:26:43.549Z,10.50
2017-12-25T10:29:11.752Z,10.60
2017-12-25T10:31:40.059Z,10.70
2017-12-25T10:34:08.833Z,10.60
2017-12-25T10:36:36.996Z,10.50
2017-12-25T10:39:05.304Z,10.60
2017-12-25T10:41:34.861Z,10.70
2017-12-25T10:44:03.031Z,10.80
2017-12-25T10:46:31.197Z,10.70
2017-12-25T10:49:00.139Z,10.50
2017-12-25T10:51:28.288Z,10.60
2017-12-25T10:53:56.458Z,10.60
2017-12-25T10:56:24.635Z,10.60
2017-12-25T10:58:52.817Z,10.50
2017-12-25T11:01:21.049Z,10.40
2017-12-25T11:03:50.010Z,10.50
2017-12-25T11:06:18.170Z,10.40
2017-12-25T11:08:47.800Z,10.30
2017-12-25T11:11:16.802Z,10.40
2017-12-25T11:13:44.977Z,10.40
2017-12-25T11:16:13.183Z,10.40
2017-12-25T11:18:42.128Z,10.20
2017-12-25T11:21:10.286Z,10.20
2017-12-25T11:23:38.466Z,10.20
2017-12-25T11:26:06.635Z,10.20
2017-12-25T11:28:34.822Z,10.30
2017-12-25T11:31:04.450Z,10.40
2017-12-25T11:33:32.904Z,10.50
2017-12-25T11:36:01.073Z,10.40
2017-12-25T11:38:29.251Z,10.40
2017-12-25T11:40:57.439Z,10.50
2017-12-25T11:43:25.618Z,10.50
2017-12-25T11:45:53.770Z,10.50
2017-12-25T11:48:21.930Z,10.50
2017-12-25T11:50:50.220Z,10.60
2017-12-25T11:53:18.396Z,10.60
2017-12-25T11:55:46.565Z,10.60
2017-12-25T11:58:14.760Z,10.60
2017-12-25T12:00:42.904Z,10.50
2017-12-25T12:03:11.834Z,10.60
2017-12-25T12:05:40.043Z,10.60
2017-12-25T12:08:09.015Z,10.60
2017-12-25T12:10:37.229Z,10.60
2017-12-25T12:13:06.180Z,10.70
2017-12-25T12:15:34.375Z,10.70
2017-12-25T12:18:02.569Z,10.70
2017-12-25T12:20:31.487Z,10.70
2017-12-25T12:22:59.722Z,10.70
2017-12-25T12:25:27.890Z,10.70
2017-12-25T12:27:56.087Z,10.80
2017-12-25T12:30:25.358Z,10.80
2017-12-25T12:32:54.297Z,10.70
2017-12-25T12:35:22.557Z,10.70
2017-12-25T12:37:50.792Z,10.70
2017-12-25T12:40:19.010Z,10.70
2017-12-25T12:42:48.662Z,10.70
2017-12-25T12:45:17.086Z,10.70
2017-12-25T12:47:45.333Z,10.70
2017-12-25T12:50:13.540Z,10.60
2017-12-25T12:52:42.485Z,10.60
2017-12-25T12:55:10.646Z,10.60
2017-12-25T12:57:38.816Z,10.50
2017-12-25T13:00:06.974Z,10.60
2017-12-25T13:02:39.995Z,10.50
2017-12-25T13:05:08.161Z,10.50
2017-12-25T13:07:36.342Z,10.50
2017-12-25T13:10:04.555Z,10.40
2017-12-25T13:12:32.709Z,10.50
2017-12-25T13:15:01.058Z,10.60
2017-12-25T13:17:29.336Z,10.50
2017-12-25T13:19:57.517Z,10.50
2017-12-25T13:22:25.672Z,10.60
2017-12-25T13:24:54.625Z,10.80
2017-12-25T13:27:22.822Z,10.80
2017-12-25T13:29:51.766Z,10.60
2017-12-25T13:32:19.928Z,10.60
2017-12-25T13:34:48.118Z,10.70
2017-12-25T13:37:16.286Z,10.60
2017-12-25T13:39:44.453Z,10.60
2017-12-25T13:42:12.614Z,10.60
2017-12-25T13:44:40.787Z,10.50
2017-12-25T13:47:08.945Z,10.40
2017-12-25T13:49:37.136Z,10.50
2017-12-25T13:52:05.326Z,10.40
2017-12-25T13:54:34.232Z,10.30
2017-12-25T13:57:02.390Z,10.20
2017-12-25T13:59:30.557Z,10.30
2017-12-25T14:01:58.702Z,10.40
2017-12-25T14:04:26.867Z,10.50
2017-12-25T14:06:55.010Z,10.30
2017-12-25T14:09:23.217Z,10.30
2017-12-25T14:11:52.146Z,10.40
2017-12-25T14:14:20.365Z,10.30
2017-12-25T14:16:48.539Z,10.30
2017-12-25T14:19:16.719Z,10.40
2017-12-25T14:21:44.880Z,10.40
2017-12-25T14:24:13.067Z,10.40
2017-12-25T14:26:41.245Z,10.20
2017-12-25T14:29:09.425Z,10.10
2017-12-25T14:31:37.586Z,10.00
2017-12-25T14:34:06.569Z,10.00
2017-12-25T14:36:34.725Z,10.00
2017-12-25T14:39:02.911Z,10.00
2017-12-25T14:41:31.075Z,9.90
2017-12-25T14:43:59.242Z,9.90
2017-12-25T14:46:27.395Z,9.80
2017-12-25T14:48:55.566Z,9.60
2017-12-25T14:51:24.474Z,9.60
2017-12-25T14:53:53.518Z,9.60
2017-12-25T14:56:21.662Z,9.70
2017-12-25T14:58:49.841Z,9.60
2017-12-25T15:01:21.675Z,9.80
2017-12-25T15:03:51.362Z,9.70
2017-12-25T15:06:23.034Z,9.80
2017-12-25T15:08:51.207Z,9.80
2017-12-25T15:11:21.550Z,9.80
2017-12-25T15:13:49.748Z,9.70
2017-12-25T15:16:20.667Z,9.60
2017-12-25T15:21:21.406Z,9.70
2017-12-25T15:23:50.287Z,9.70
2017-12-25T15:26:19.197Z,9.70
2017-12-25T15:28:47.371Z,9.70
2017-12-25T15:31:15.520Z,9.60
2017-12-25T15:33:43.686Z,9.70
2017-12-25T15:36:11.965Z,9.50
2017-12-25T15:38:40.886Z,9.20
2017-12-25T15:41:09.021Z,9.20
2017-12-25T15:43:37.967Z,9.10
2017-12-25T15:46:06.131Z,9.10
2017-12-25T15:48:34.295Z,9.20
2017-12-25T15:51:02.438Z,9.30
2017-12-25T15:53:30.614Z,9.30
2017-12-25T15:55:59.526Z,9.30
2017-12-25T15:58:27.693Z,9.30
2017-12-25T16:00:55.826Z,9.20
2017-12-25T16:03:23.972Z,9.20
2017-12-25T16:05:52.135Z,9.20
2017-12-25T16:08:20.309Z,9.30
2017-12-25T16:10:48.478Z,9.30
2017-12-25T16:13:16.616Z,9.20
2017-12-25T16:15:45.547Z,9.00
2017-12-25T16:18:13.790Z,9.00
2017-12-25T16:20:42.727Z,8.90
2017-12-25T16:23:10.884Z,8.90
2017-12-25T16:25:39.050Z,8.80
2017-12-25T16:28:07.187Z,8.90
2017-12-25T16:30:35.376Z,8.90
2017-12-25T16:33:04.276Z,8.80
2017-12-25T16:35:33.207Z,8.90
2017-12-25T16:38:01.437Z,8.90
2017-12-25T16:40:29.772Z,8.70
2017-12-25T16:42:57.915Z,8.70
2017-12-25T16:45:26.098Z,8.70
2017-12-25T16:47:54.243Z,8.70
2017-12-25T16:50:22.409Z,8.50
2017-12-25T16:52:51.312Z,8.60
2017-12-25T16:55:19.486Z,8.60
2017-12-25T16:57:47.626Z,8.50
2017-12-25T17:00:15.798Z,8.50
2017-12-25T17:02:43.962Z,8.50
2017-12-25T17:05:12.138Z,8.30
2017-12-25T17:07:40.298Z,8.40
2017-12-25T17:10:08.472Z,8.40
2017-12-25T17:12:36.635Z,8.30
2017-12-25T17:15:04.819Z,8.40
2017-12-25T17:17:32.972Z,8.40
2017-12-25T17:20:01.151Z,8.40
2017-12-25T17:22:30.127Z,8.30
2017-12-25T17:24:58.303Z,8.20
2017-12-25T17:27:26.464Z,8.20
2017-12-25T17:29:54.627Z,8.30
2017-12-25T17:32:23.537Z,8.30
2017-12-25T17:34:51.742Z,8.30
2017-12-25T17:37:19.882Z,8.30
2017-12-25T17:39:48.054Z,8.20
2017-12-25T17:42:16.201Z,8.10
2017-12-25T17:44:45.148Z,8.20
2017-12-25T17:47:13.298Z,8.20
2017-12-25T17:49:41.466Z,8.10
2017-12-25T17:52:09.641Z,8.10
2017-12-25T17:54:37.823Z,8.00
2017-12-25T17:57:05.982Z,8.00
2017-12-25T17:59:34.935Z,7.90
2017-12-25T18:02:03.552Z,7.90
2017-12-25T18:04:31.797Z,8.00
2017-12-25T18:06:59.933Z,7.90
2017-12-25T18:09:28.092Z,7.80
2017-12-25T18:11:56.231Z,7.80
2017-12-25T18:14:24.394Z,7.90
2017-12-25T18:16:52.537Z,7.70
2017-12-25T18:19:20.718Z,7.80
2017-12-25T18:21:48.894Z,7.70
2017-12-25T18:24:17.063Z,7.80
2017-12-25T18:26:45.987Z,7.60
2017-12-25T18:29:15.129Z,7.80
2017-12-25T18:31:43.296Z,7.80
2017-12-25T18:34:11.454Z,7.70
2017-12-25T18:36:39.653Z,7.60
2017-12-25T18:39:07.855Z,7.70
2017-12-25T18:41:36.035Z,7.60
2017-12-25T18:44:04.394Z,7.60
2017-12-25T18:46:32.573Z,7.70
2017-12-25T18:49:00.719Z,7.70
2017-12-25T18:51:28.905Z,7.60
2017-12-25T18:53:57.062Z,7.70
2017-12-25T18:56:25.250Z,7.70
2017-12-25T18:58:53.390Z,7.60
2017-12-25T19:01:22.321Z,7.60
2017-12-25T19:03:50.487Z,7.60
2017-12-25T19:06:18.660Z,7.60
2017-12-25T19:08:46.846Z,7.50
2017-12-25T19:11:15.050Z,7.50
2017-12-25T19:13:43.357Z,7.60
2017-12-25T19:16:11.578Z,7.60
2017-12-25T19:18:39.719Z,7.50
2017-12-25T19:21:08.693Z,7.50
2017-12-25T19:23:36.846Z,7.50
2017-12-25T19:26:05.326Z,7.50
2017-12-25T19:28:33.482Z,7.60
2017-12-25T19:31:01.655Z,7.70
2017-12-25T19:33:29.844Z,7.70
2017-12-25T19:35:58.059Z,7.70
2017-12-25T19:38:26.962Z,7.40
2017-12-25T19:40:55.140Z,7.40
2017-12-25T19:43:23.305Z,7.30
2017-12-25T19:45:51.491Z,7.30
2017-12-25T19:48:19.642Z,7.30
2017-12-25T19:50:48.641Z,7.30
2017-12-25T19:53:16.988Z,7.30
2017-12-25T19:55:45.187Z,7.20
2017-12-25T19:58:13.349Z,7.30
2017-12-25T20:00:42.322Z,7.30
2017-12-25T20:03:10.486Z,7.30
2017-12-25T20:05:38.675Z,7.30
2017-12-25T20:08:06.846Z,7.20
2017-12-25T20:10:35.075Z,7.20
2017-12-25T20:13:03.706Z,7.20
2017-12-25T20:15:31.997Z,7.10
2017-12-25T20:18:00.151Z,7.20
2017-12-25T20:20:28.322Z,7.40
2017-12-25T20:22:56.804Z,7.40
2017-12-25T20:25:24.978Z,7.30
2017-12-25T20:27:53.186Z,7.30
2017-12-25T20:30:21.370Z,7.30
2017-12-25T20:32:50.294Z,7.30
2017-12-25T20:35:18.504Z,7.40
2017-12-25T20:37:46.668Z,7.40
2017-12-25T20:40:14.846Z,7.40
2017-12-25T20:42:43.014Z,7.20
2017-12-25T20:45:11.198Z,7.20
2017-12-25T20:47:39.350Z,7.40
2017-12-25T20:50:07.540Z,7.40
2017-12-25T20:52:35.695Z,7.40
2017-12-25T20:55:03.875Z,7.60
2017-12-25T20:57:32.018Z,7.40
2017-12-25T21:00:00.962Z,7.40
2017-12-25T21:02:30.874Z,7.20
2017-12-25T21:04:59.052Z,7.20
2017-12-25T21:07:27.223Z,7.40
2017-12-25T21:09:55.386Z,7.40
2017-12-25T21:12:23.573Z,7.30
2017-12-25T21:14:51.721Z,7.10
2017-12-25T21:17:19.902Z,7.10
2017-12-25T21:19:48.077Z,7.20
2017-12-25T21:22:16.285Z,7.20
2017-12-25T21:24:44.457Z,7.40
2017-12-25T21:27:12.653Z,7.30
2017-12-25T21:29:40.817Z,7.20
2017-12-25T21:32:08.998Z,7.20
2017-12-25T21:34:38.314Z,7.30
2017-12-25T21:37:07.250Z,7.50
2017-12-25T21:39:35.430Z,7.50
2017-12-25T21:42:04.287Z,7.60
2017-12-25T21:44:32.457Z,7.50
2017-12-25T21:47:00.796Z,7.40
2017-12-25T21:49:29.050Z,7.40
2017-12-25T21:51:57.249Z,7.20
2017-12-25T21:54:25.412Z,7.10
2017-12-25T21:56:53.605Z,7.10
2017-12-25T21:59:22.545Z,7.00
2017-12-25T22:01:50.775Z,7.00
2017-12-25T22:04:19.720Z,7.00
2017-12-25T22:06:48.238Z,7.00
2017-12-25T22:09:16.447Z,7.10
2017-12-25T22:11:45.396Z,7.10
2017-12-25T22:14:13.562Z,7.10
2017-12-25T22:16:41.742Z,7.00
2017-12-25T22:19:09.914Z,6.80
2017-12-25T22:21:38.916Z,6.60
2017-12-25T22:24:07.077Z,6.50
2017-12-25T22:26:35.241Z,6.60
2017-12-25T22:29:03.763Z,6.70
2017-12-25T22:31:32.702Z,6.70
2017-12-25T22:34:00.967Z,6.70
2017-12-25T22:36:29.314Z,6.70
2017-12-25T22:38:58.250Z,6.80
2017-12-25T22:41:26.425Z,6.80
2017-12-25T22:43:54.594Z,6.70
2017-12-25T22:46:22.786Z,6.50
2017-12-25T22:48:50.991Z,6.50
2017-12-25T22:51:19.949Z,6.50
2017-12-25T22:53:48.094Z,6.50
2017-12-25T22:56:16.302Z,6.60
2017-12-25T22:58:44.450Z,6.70
2017-12-25T23:01:12.626Z,6.70
2017-12-25T23:03:40.790Z,6.80
2017-12-25T23:06:08.958Z,6.90
2017-12-25T23:08:37.110Z,6.70
2017-12-25T23:11:06.063Z,6.60
2017-12-25T23:13:34.215Z,6.60
2017-12-25T23:16:02.382Z,6.60
2017-12-25T23:18:30.534Z,6.60
2017-12-25T23:20:59.482Z,6.40
2017-12-25T23:23:27.625Z,6.40
2017-12-25T23:25:55.821Z,6.50
2017-12-25T23:28:23.974Z,6.60
2017-12-25T23:30:52.146Z,6.60
2017-12-25T23:33:20.320Z,6.70
2017-12-25T23:35:48.494Z,6.70
2017-12-25T23:38:16.657Z,6.60
2017-12-25T23:40:45.598Z,6.80
2017-12-25T23:43:13.781Z,6.80
2017-12-25T23:45:41.943Z,6.90
2017-12-25T23:48:10.122Z,6.90
2017-12-25T23:50:38.279Z,6.90
2017-12-25T23:53:06.457Z,7.00
2017-12-25T23:55:34.629Z,7.00
2017-12-25T23:58:02.813Z,6.90
